Time;durP1;ratioP1;P1;durP2;ratioP2;P2;SDS_P1;SDS_P2;PMS_P1;PMS_P2;Temp;Humidity;BMP_temperature;BMP_pressure;BME280_temperature;BME280_humidity;BME280_pressure;Samples;Min_cycle;Max_cycle;Signal;HPM_P1;HPM_P2
2021/10/30 00:02:00;;;;;;;16.73;7.93;;;;;;;;;;5095877;28;20118;-75
2021/10/30 00:04:25;;;;;;;13.05;7.20;;;;;;;;;;5095871;28;20132;-75
2021/10/30 00:06:52;;;;;;;11.98;7.60;;;;;;;;;;5095868;28;20502;-75
2021/10/30 00:09:18;;;;;;;13.82;7.50;;;;;;;;;;5095137;28;20173;-75
2021/10/30 00:11:43;;;;;;;10.60;7.45;;;;;;;;;;5095772;28;20071;-75
2021/10/30 00:14:08;;;;;;;13.38;8.13;;;;;;;;;;5095597;28;20414;-75
2021/10/30 00:16:34;;;;;;;10.82;7.60;;;;;;;;;;5095621;28;20504;-75
2021/10/30 00:18:59;;;;;;;18.80;8.65;;;;;;;;;;5095603;28;20040;-75
2021/10/30 00:21:25;;;;;;;12.50;8.30;;;;;;;;;;5095138;28;20028;-75
2021/10/30 00:23:51;;;;;;;13.43;7.65;;;;;;;;;;5095096;28;20089;-75
2021/10/30 00:26:16;;;;;;;11.90;7.05;;;;;;;;;;5094928;28;20047;-75
2021/10/30 00:28:42;;;;;;;12.98;6.85;;;;;;;;;;5095457;28;20397;-75
2021/10/30 00:31:07;;;;;;;18.42;6.38;;;;;;;;;;5094986;28;20123;-75
2021/10/30 00:33:33;;;;;;;10.25;6.85;;;;;;;;;;5094852;28;20051;-75
2021/10/30 00:35:59;;;;;;;12.70;6.68;;;;;;;;;;5095172;28;20454;-75
2021/10/30 00:38:25;;;;;;;9.85;7.28;;;;;;;;;;5095277;28;20028;-75
2021/10/30 00:40:50;;;;;;;20.00;6.55;;;;;;;;;;5093679;28;20067;-75
2021/10/30 00:43:16;;;;;;;25.00;7.45;;;;;;;;;;5094960;28;20485;-75
2021/10/30 00:45:45;;;;;;;11.73;6.75;;;;;;;;;;5094071;28;20036;-75
2021/10/30 00:48:10;;;;;;;13.25;7.57;;;;;;;;;;5094735;28;20065;-75
2021/10/30 00:50:36;;;;;;;14.05;7.13;;;;;;;;;;5094943;28;20116;-75
2021/10/30 00:53:01;;;;;;;8.45;6.32;;;;;;;;;;5094813;28;20123;-75
2021/10/30 00:55:29;;;;;;;12.68;6.57;;;;;;;;;;5095040;28;20061;-75
2021/10/30 00:57:58;;;;;;;11.27;7.20;;;;;;;;;;5094768;28;20040;-75
2021/10/30 01:00:23;;;;;;;7.55;5.07;;;;;;;;;;5094743;28;20081;-75
2021/10/30 01:02:49;;;;;;;9.88;5.45;;;;;;;;;;5094293;28;20125;-75
2021/10/30 01:05:15;;;;;;;10.80;5.68;;;;;;;;;;5094349;28;20128;-75
2021/10/30 01:07:40;;;;;;;10.23;6.38;;;;;;;;;;5093763;28;20035;-75
2021/10/30 01:10:06;;;;;;;14.18;6.70;;;;;;;;;;5093564;28;20044;-75
2021/10/30 01:12:32;;;;;;;13.50;6.68;;;;;;;;;;5094642;28;20093;-75
2021/10/30 01:14:58;;;;;;;9.60;6.25;;;;;;;;;;5094243;28;20040;-75
2021/10/30 01:17:23;;;;;;;10.27;5.60;;;;;;;;;;5076453;28;20032;-75
2021/10/30 01:19:53;;;;;;;9.18;5.72;;;;;;;;;;5094163;28;20668;-75
2021/10/30 01:22:19;;;;;;;9.45;6.95;;;;;;;;;;5094229;28;20059;-75
2021/10/30 01:24:45;;;;;;;11.45;7.85;;;;;;;;;;5093747;28;20477;-75
2021/10/30 01:27:10;;;;;;;10.05;7.72;;;;;;;;;;5094224;28;20036;-75
2021/10/30 01:29:36;;;;;;;16.15;8.13;;;;;;;;;;5094250;28;20549;-75
2021/10/30 01:32:01;;;;;;;14.57;8.18;;;;;;;;;;5094062;28;20123;-75
2021/10/30 01:34:27;;;;;;;13.75;7.13;;;;;;;;;;5094065;28;20028;-75
2021/10/30 01:36:53;;;;;;;12.77;8.18;;;;;;;;;;5092801;28;20066;-75
2021/10/30 01:39:18;;;;;;;14.77;8.27;;;;;;;;;;5092997;28;20625;-75
2021/10/30 01:41:44;;;;;;;16.67;7.50;;;;;;;;;;5093873;28;20503;-75
2021/10/30 01:44:11;;;;;;;76.20;9.55;;;;;;;;;;5093838;28;20028;-74
2021/10/30 01:46:36;;;;;;;13.20;8.63;;;;;;;;;;5093821;28;20157;-75
2021/10/30 01:49:03;;;;;;;68.18;7.57;;;;;;;;;;5094034;28;20487;-75
2021/10/30 01:51:29;;;;;;;61.90;8.63;;;;;;;;;;5093455;28;20393;-75
2021/10/30 01:53:55;;;;;;;9.57;7.50;;;;;;;;;;5093472;28;20032;-75
2021/10/30 01:56:21;;;;;;;49.55;8.77;;;;;;;;;;5093567;28;20381;-75
2021/10/30 01:58:46;;;;;;;80.68;9.50;;;;;;;;;;5093593;28;20028;-75
2021/10/30 02:01:11;;;;;;;15.38;9.23;;;;;;;;;;5093553;28;20032;-75
2021/10/30 02:03:37;;;;;;;12.48;8.60;;;;;;;;;;5093378;28;20393;-75
2021/10/30 02:06:04;;;;;;;13.00;7.35;;;;;;;;;;5093657;28;20394;-75
2021/10/30 02:08:30;;;;;;;28.42;7.90;;;;;;;;;;5092718;28;20032;-75
2021/10/30 02:10:58;;;;;;;190.15;10.27;;;;;;;;;;5073078;28;20069;-75
2021/10/30 02:13:24;;;;;;;198.60;9.63;;;;;;;;;;5073599;28;20485;-75
2021/10/30 02:15:50;;;;;;;37.35;8.02;;;;;;;;;;5073058;28;20490;-75
2021/10/30 02:18:17;;;;;;;10.77;6.97;;;;;;;;;;5073127;28;20072;-75
2021/10/30 02:20:42;;;;;;;23.33;7.05;;;;;;;;;;5073352;28;20047;-75
2021/10/30 02:23:08;;;;;;;22.08;8.23;;;;;;;;;;5078030;28;20465;-75
2021/10/30 02:25:33;;;;;;;17.92;9.38;;;;;;;;;;5093478;28;20104;-75
2021/10/30 02:27:59;;;;;;;44.33;9.30;;;;;;;;;;5093313;28;20039;-75
2021/10/30 02:30:25;;;;;;;46.70;9.27;;;;;;;;;;5093238;28;20499;-75
2021/10/30 02:32:52;;;;;;;19.38;8.13;;;;;;;;;;5092862;28;20035;-75
2021/10/30 02:35:18;;;;;;;16.67;6.47;;;;;;;;;;5092186;28;20385;-75
2021/10/30 02:37:43;;;;;;;8.35;6.25;;;;;;;;;;5093061;28;20092;-75
2021/10/30 02:40:09;;;;;;;8.55;6.30;;;;;;;;;;5107717;28;20400;-75
2021/10/30 02:42:35;;;;;;;36.75;7.32;;;;;;;;;;5113492;28;20038;-75
2021/10/30 02:45:01;;;;;;;24.60;6.57;;;;;;;;;;5113602;28;20024;-75
2021/10/30 02:47:28;;;;;;;9.40;6.25;;;;;;;;;;5113279;28;20085;-75
2021/10/30 02:49:53;;;;;;;28.88;8.95;;;;;;;;;;5113641;28;20126;-75
2021/10/30 02:52:19;;;;;;;12.38;8.63;;;;;;;;;;5113283;28;20099;-75
2021/10/30 02:54:44;;;;;;;12.27;8.77;;;;;;;;;;5113185;28;20032;-75
2021/10/30 02:57:09;;;;;;;17.48;9.35;;;;;;;;;;5113198;28;20027;-75
2021/10/30 02:59:35;;;;;;;12.43;8.68;;;;;;;;;;5113484;28;20065;-75
2021/10/30 03:02:00;;;;;;;13.65;8.70;;;;;;;;;;5113178;28;20043;-75
2021/10/30 03:04:26;;;;;;;10.18;7.28;;;;;;;;;;5113386;28;20031;-75
2021/10/30 03:06:51;;;;;;;10.35;6.05;;;;;;;;;;5113214;28;20028;-75
2021/10/30 03:09:17;;;;;;;32.97;7.05;;;;;;;;;;5103249;28;20036;-75
2021/10/30 03:11:44;;;;;;;27.05;6.07;;;;;;;;;;5092785;28;20032;-75
2021/10/30 03:14:09;;;;;;;25.90;6.30;;;;;;;;;;5092946;28;20481;-75
2021/10/30 03:16:34;;;;;;;18.98;7.15;;;;;;;;;;5092982;28;20039;-75
2021/10/30 03:19:00;;;;;;;33.83;7.75;;;;;;;;;;5092695;28;20032;-75
2021/10/30 03:21:25;;;;;;;12.88;6.95;;;;;;;;;;5092609;28;20539;-75
2021/10/30 03:23:51;;;;;;;9.75;6.70;;;;;;;;;;5091841;28;20138;-75
2021/10/30 03:26:17;;;;;;;8.70;6.15;;;;;;;;;;5091628;28;20078;-75
2021/10/30 03:28:43;;;;;;;8.75;6.35;;;;;;;;;;5092902;28;20040;-75
2021/10/30 03:31:08;;;;;;;7.30;5.82;;;;;;;;;;5094912;28;20032;-75
2021/10/30 03:33:34;;;;;;;8.30;5.50;;;;;;;;;;5096233;28;20076;-75
2021/10/30 03:35:59;;;;;;;8.18;6.05;;;;;;;;;;5095235;28;20035;-75
2021/10/30 03:38:25;;;;;;;8.75;5.72;;;;;;;;;;5093957;28;20368;-75
2021/10/30 03:40:51;;;;;;;7.55;5.18;;;;;;;;;;5095990;28;20044;-75
2021/10/30 03:43:16;;;;;;;6.57;4.82;;;;;;;;;;5096449;28;20375;-75
2021/10/30 03:45:42;;;;;;;7.85;5.97;;;;;;;;;;5095118;28;20039;-75
2021/10/30 03:48:08;;;;;;;15.23;5.93;;;;;;;;;;5094955;28;20386;-75
2021/10/30 03:50:35;;;;;;;9.43;6.00;;;;;;;;;;5095021;28;20039;-75
2021/10/30 03:53:00;;;;;;;7.78;5.55;;;;;;;;;;5095399;28;20185;-75
2021/10/30 03:55:26;;;;;;;35.05;7.10;;;;;;;;;;5095894;28;20119;-75
2021/10/30 03:57:52;;;;;;;9.90;5.88;;;;;;;;;;5095840;28;20432;-75
2021/10/30 04:00:17;;;;;;;12.25;5.38;;;;;;;;;;5095912;28;20039;-75
2021/10/30 04:02:43;;;;;;;7.78;5.30;;;;;;;;;;5095662;28;20166;-75
2021/10/30 04:05:09;;;;;;;9.80;5.40;;;;;;;;;;5095826;28;20119;-75
2021/10/30 04:07:35;;;;;;;9.50;5.30;;;;;;;;;;5095703;28;20378;-75
2021/10/30 04:10:00;;;;;;;9.40;5.28;;;;;;;;;;5093228;28;20394;-75
2021/10/30 04:12:26;;;;;;;10.77;4.68;;;;;;;;;;5095651;28;20040;-75
2021/10/30 04:14:51;;;;;;;27.13;5.90;;;;;;;;;;5095648;28;20034;-75
2021/10/30 04:17:17;;;;;;;14.13;5.50;;;;;;;;;;5095577;28;20048;-75
2021/10/30 04:19:42;;;;;;;18.55;6.03;;;;;;;;;;5095611;28;20031;-75
2021/10/30 04:22:07;;;;;;;9.55;6.65;;;;;;;;;;5095601;28;20032;-75
2021/10/30 04:24:33;;;;;;;10.20;7.03;;;;;;;;;;5093972;28;20048;-75
2021/10/30 04:26:59;;;;;;;21.55;7.20;;;;;;;;;;5095594;28;20094;-75
2021/10/30 04:29:25;;;;;;;26.25;8.75;;;;;;;;;;5095239;28;20039;-75
2021/10/30 04:31:53;;;;;;;12.23;7.60;;;;;;;;;;5095246;28;20106;-75
2021/10/30 04:34:19;;;;;;;15.18;8.80;;;;;;;;;;5095221;28;20040;-75
2021/10/30 04:36:47;;;;;;;15.95;8.63;;;;;;;;;;5095285;28;20070;-76
2021/10/30 04:39:13;;;;;;;13.30;8.27;;;;;;;;;;5094870;28;20040;-75
2021/10/30 04:41:41;;;;;;;10.68;7.90;;;;;;;;;;5092759;28;20055;-75
2021/10/30 04:44:07;;;;;;;16.85;9.05;;;;;;;;;;5094877;28;20111;-75
2021/10/30 04:46:32;;;;;;;21.08;7.07;;;;;;;;;;5095302;28;20111;-75
2021/10/30 04:48:58;;;;;;;15.10;8.10;;;;;;;;;;5095285;28;20035;-75
2021/10/30 04:51:24;;;;;;;15.63;8.68;;;;;;;;;;5094937;28;20504;-75
2021/10/30 04:53:50;;;;;;;13.63;9.25;;;;;;;;;;5094741;28;20028;-75
2021/10/30 04:56:15;;;;;;;18.55;9.75;;;;;;;;;;5095072;28;20036;-75
2021/10/30 04:58:44;;;;;;;15.93;7.20;;;;;;;;;;5094814;28;20039;-76
2021/10/30 05:01:15;;;;;;;19.63;7.63;;;;;;;;;;5094586;28;20135;-75
2021/10/30 05:03:41;;;;;;;13.30;8.60;;;;;;;;;;5094774;28;20032;-76
2021/10/30 05:06:08;;;;;;;10.27;6.53;;;;;;;;;;5094488;28;20067;-75
2021/10/30 05:08:33;;;;;;;12.00;7.57;;;;;;;;;;5094672;28;20039;-76
2021/10/30 05:10:59;;;;;;;10.73;6.57;;;;;;;;;;5094158;28;20062;-76
2021/10/30 05:13:24;;;;;;;7.82;5.22;;;;;;;;;;5094305;28;20044;-75
2021/10/30 05:15:49;;;;;;;12.02;5.70;;;;;;;;;;5094507;28;20031;-75
2021/10/30 05:18:15;;;;;;;10.60;6.18;;;;;;;;;;5094538;28;20051;-75
2021/10/30 05:20:40;;;;;;;8.90;5.25;;;;;;;;;;5094514;28;20077;-75
2021/10/30 05:23:06;;;;;;;7.38;5.05;;;;;;;;;;5094260;28;20067;-76
2021/10/30 05:25:31;;;;;;;8.18;5.53;;;;;;;;;;5093926;28;20036;-75
2021/10/30 05:27:56;;;;;;;9.93;6.28;;;;;;;;;;5094312;28;20067;-76
2021/10/30 05:30:22;;;;;;;10.68;6.82;;;;;;;;;;5094203;28;20051;-75
2021/10/30 05:32:47;;;;;;;9.63;6.75;;;;;;;;;;5093487;28;20037;-76
2021/10/30 05:35:31;;;;;;;8.98;5.65;;;;;;;;;;5094277;28;20047;-75
2021/10/30 05:38:17;;;;;;;10.02;7.30;;;;;;;;;;5093542;28;20105;-75
2021/10/30 05:40:44;;;;;;;11.57;7.80;;;;;;;;;;5093157;28;20509;-76
2021/10/30 05:43:11;;;;;;;11.68;6.20;;;;;;;;;;5093534;28;20051;-76
2021/10/30 05:45:38;;;;;;;11.18;6.95;;;;;;;;;;5093842;28;20043;-76
2021/10/30 05:48:06;;;;;;;12.48;6.40;;;;;;;;;;5093861;28;20040;-76
2021/10/30 05:50:32;;;;;;;8.82;6.32;;;;;;;;;;5093108;28;20043;-75
2021/10/30 05:52:58;;;;;;;11.85;7.45;;;;;;;;;;5092846;28;20123;-75
2021/10/30 05:55:23;;;;;;;11.10;7.80;;;;;;;;;;5092221;28;20173;-75
2021/10/30 05:57:48;;;;;;;17.30;9.88;;;;;;;;;;5093483;28;20040;-75
2021/10/30 06:00:15;;;;;;;22.27;10.55;;;;;;;;;;5093663;28;20107;-75
2021/10/30 06:02:40;;;;;;;14.75;10.65;;;;;;;;;;5093176;28;20050;-75
2021/10/30 06:05:06;;;;;;;14.40;10.40;;;;;;;;;;5093358;28;20036;-75
2021/10/30 06:07:31;;;;;;;24.25;9.77;;;;;;;;;;5093355;28;20042;-76
2021/10/30 06:09:57;;;;;;;12.40;9.07;;;;;;;;;;5093340;28;20035;-75
2021/10/30 06:12:22;;;;;;;17.38;10.43;;;;;;;;;;5093315;28;20040;-75
2021/10/30 06:14:47;;;;;;;19.13;12.15;;;;;;;;;;5093189;28;20047;-75
2021/10/30 06:17:13;;;;;;;22.75;13.80;;;;;;;;;;5093566;28;20032;-75
2021/10/30 06:19:38;;;;;;;20.60;14.07;;;;;;;;;;5093633;28;20565;-75
2021/10/30 06:22:04;;;;;;;23.00;13.57;;;;;;;;;;5092865;28;20089;-75
2021/10/30 06:24:30;;;;;;;19.50;13.63;;;;;;;;;;5092114;28;20068;-75
2021/10/30 06:26:55;;;;;;;22.95;11.88;;;;;;;;;;5093439;28;20036;-75
2021/10/30 06:29:21;;;;;;;24.48;10.70;;;;;;;;;;5091580;28;20027;-75
2021/10/30 06:31:46;;;;;;;20.33;11.25;;;;;;;;;;5092870;28;20043;-74
2021/10/30 06:34:12;;;;;;;13.90;9.85;;;;;;;;;;5091649;28;20086;-75
2021/10/30 06:36:38;;;;;;;15.02;9.82;;;;;;;;;;5092717;28;20453;-75
2021/10/30 06:39:03;;;;;;;17.08;9.80;;;;;;;;;;5091612;28;20081;-75
2021/10/30 06:41:29;;;;;;;17.17;9.68;;;;;;;;;;5092236;28;20643;-75
2021/10/30 06:43:54;;;;;;;13.68;8.60;;;;;;;;;;5093010;28;20028;-75
2021/10/30 06:46:19;;;;;;;15.25;8.07;;;;;;;;;;5091818;28;20497;-76
2021/10/30 06:48:47;;;;;;;10.02;7.72;;;;;;;;;;5093205;28;20036;-75
2021/10/30 06:51:15;;;;;;;11.55;8.13;;;;;;;;;;5092740;28;20047;-75
2021/10/30 06:53:40;;;;;;;14.43;10.30;;;;;;;;;;5092832;28;20036;-75
2021/10/30 06:56:07;;;;;;;16.35;11.23;;;;;;;;;;5092651;28;20043;-75
2021/10/30 06:58:33;;;;;;;23.02;13.88;;;;;;;;;;5092899;28;20035;-74
2021/10/30 07:00:58;;;;;;;22.77;13.45;;;;;;;;;;5093031;28;20101;-75
2021/10/30 07:03:24;;;;;;;21.23;13.75;;;;;;;;;;5093224;28;20038;-76
2021/10/30 07:05:50;;;;;;;23.98;15.10;;;;;;;;;;5094837;28;20122;-76
2021/10/30 07:08:16;;;;;;;24.20;14.88;;;;;;;;;;5096842;28;20078;-76
2021/10/30 07:10:41;;;;;;;23.55;16.02;;;;;;;;;;5096661;28;20040;-75
2021/10/30 07:13:07;;;;;;;24.40;15.20;;;;;;;;;;5096761;28;20036;-76
2021/10/30 07:15:32;;;;;;;22.52;14.70;;;;;;;;;;5096868;28;20047;-75
2021/10/30 07:17:58;;;;;;;24.83;14.10;;;;;;;;;;5094751;28;20043;-75
2021/10/30 07:20:24;;;;;;;20.67;13.85;;;;;;;;;;5096388;28;20371;-76
2021/10/30 07:22:50;;;;;;;18.05;13.30;;;;;;;;;;5096466;28;20068;-76
2021/10/30 07:25:20;;;;;;;24.92;12.70;;;;;;;;;;5095102;28;20043;-76
2021/10/30 07:27:45;;;;;;;32.08;20.27;;;;;;;;;;5096367;28;20382;-76
2021/10/30 07:30:12;;;;;;;27.63;17.60;;;;;;;;;;5096493;28;20046;-76
2021/10/30 07:32:38;;;;;;;29.70;16.60;;;;;;;;;;5096347;28;20458;-74
2021/10/30 07:35:04;;;;;;;27.23;16.75;;;;;;;;;;5096282;28;20032;-75
2021/10/30 07:37:30;;;;;;;26.15;16.70;;;;;;;;;;5096184;28;20031;-75
2021/10/30 07:39:56;;;;;;;22.48;15.65;;;;;;;;;;5095815;28;20086;-74
2021/10/30 07:42:22;;;;;;;25.85;16.77;;;;;;;;;;5096077;28;20036;-75
2021/10/30 07:44:48;;;;;;;27.27;18.75;;;;;;;;;;5095084;28;20543;-74
2021/10/30 07:47:13;;;;;;;28.65;18.67;;;;;;;;;;5096016;28;20115;-76
2021/10/30 07:49:39;;;;;;;25.08;17.00;;;;;;;;;;5095644;28;20377;-76
2021/10/30 07:52:06;;;;;;;23.63;17.27;;;;;;;;;;5096113;28;20040;-76
2021/10/30 07:54:33;;;;;;;34.65;19.63;;;;;;;;;;5095875;28;20036;-75
2021/10/30 07:56:59;;;;;;;24.70;16.20;;;;;;;;;;5096156;28;20097;-74
2021/10/30 07:59:25;;;;;;;28.48;17.30;;;;;;;;;;5096454;28;20028;-79
2021/10/30 08:01:50;;;;;;;31.42;18.75;;;;;;;;;;5098714;28;20032;-79
2021/10/30 08:04:17;;;;;;;31.33;18.23;;;;;;;;;;5100011;28;20024;-79
2021/10/30 08:06:43;;;;;;;28.95;18.05;;;;;;;;;;5099493;28;20385;-77
2021/10/30 08:09:08;;;;;;;23.75;17.40;;;;;;;;;;5095916;28;20047;-74
2021/10/30 08:11:33;;;;;;;25.13;16.67;;;;;;;;;;5096082;28;20435;-74
2021/10/30 08:13:59;;;;;;;26.45;18.90;;;;;;;;;;5095312;28;20028;-75
2021/10/30 08:16:25;;;;;;;29.73;17.58;;;;;;;;;;5095598;28;20546;-75
2021/10/30 08:18:50;;;;;;;28.67;17.67;;;;;;;;;;5095520;28;20107;-75
2021/10/30 08:21:15;;;;;;;29.73;17.45;;;;;;;;;;5095050;28;20031;-75
2021/10/30 08:23:41;;;;;;;24.30;17.92;;;;;;;;;;5094780;28;20031;-75
2021/10/30 08:26:08;;;;;;;30.13;20.58;;;;;;;;;;5095488;28;20056;-76
2021/10/30 08:28:34;;;;;;;29.85;20.23;;;;;;;;;;5095041;28;20036;-76
2021/10/30 08:30:59;;;;;;;32.28;20.13;;;;;;;;;;5095151;28;20501;-74
2021/10/30 08:33:24;;;;;;;32.58;19.17;;;;;;;;;;5095294;28;20089;-75
2021/10/30 08:35:50;;;;;;;36.88;20.95;;;;;;;;;;5095305;28;20077;-75
2021/10/30 08:38:15;;;;;;;31.30;20.92;;;;;;;;;;5094535;28;20077;-75
2021/10/30 08:40:41;;;;;;;31.75;22.92;;;;;;;;;;5095014;28;20052;-75
2021/10/30 08:43:08;;;;;;;33.40;21.48;;;;;;;;;;5095269;28;20040;-75
2021/10/30 08:45:35;;;;;;;42.67;22.67;;;;;;;;;;5093713;28;20051;-75
2021/10/30 08:48:02;;;;;;;31.63;22.60;;;;;;;;;;5094254;28;20043;-75
2021/10/30 08:50:28;;;;;;;34.30;22.95;;;;;;;;;;5094930;28;20062;-75
2021/10/30 08:52:54;;;;;;;36.95;23.55;;;;;;;;;;5094615;28;20056;-75
2021/10/30 08:55:19;;;;;;;40.85;24.40;;;;;;;;;;5094843;28;20462;-74
2021/10/30 08:57:45;;;;;;;32.58;21.85;;;;;;;;;;5094880;28;20362;-75
2021/10/30 09:00:17;;;;;;;32.38;22.27;;;;;;;;;;5094809;28;20043;-73
2021/10/30 09:02:43;;;;;;;35.65;23.77;;;;;;;;;;5094514;28;20028;-75
2021/10/30 09:05:22;;;;;;;33.65;22.42;;;;;;;;;;5094638;28;20169;-75
2021/10/30 09:07:50;;;;;;;35.13;21.20;;;;;;;;;;5094524;28;20039;-76
2021/10/30 09:10:19;;;;;;;33.72;23.42;;;;;;;;;;5093308;28;20074;-75
2021/10/30 09:12:59;;;;;;;35.10;23.90;;;;;;;;;;5094440;28;20043;-75
2021/10/30 09:15:39;;;;;;;33.70;22.70;;;;;;;;;;5094339;28;20051;-74
2021/10/30 09:18:28;;;;;;;38.40;26.65;;;;;;;;;;5094445;28;20086;-74
2021/10/30 09:20:56;;;;;;;44.53;30.63;;;;;;;;;;5081615;28;20508;-75
2021/10/30 09:23:26;;;;;;;45.30;31.67;;;;;;;;;;5076357;28;20456;-74
2021/10/30 09:26:07;;;;;;;40.70;27.15;;;;;;;;;;5073432;28;20024;-76
2021/10/30 09:28:44;;;;;;;33.38;23.33;;;;;;;;;;5082441;28;20040;-75
2021/10/30 09:31:11;;;;;;;42.03;30.20;;;;;;;;;;5087464;28;20043;-75
2021/10/30 09:34:06;;;;;;;140.15;91.93;;;;;;;;;;5078081;28;20063;-76
2021/10/30 09:36:34;;;;;;;89.57;62.15;;;;;;;;;;5071756;28;20048;-77
2021/10/30 09:39:13;;;;;;;74.20;52.28;;;;;;;;;;5073855;28;20111;-75
2021/10/30 09:41:44;;;;;;;67.57;52.67;;;;;;;;;;5073578;28;20040;-75
2021/10/30 09:44:14;;;;;;;51.50;38.25;;;;;;;;;;5073604;28;20032;-75
2021/10/30 09:46:51;;;;;;;41.33;31.70;;;;;;;;;;5085245;28;20550;-75
2021/10/30 09:49:21;;;;;;;39.90;28.02;;;;;;;;;;5093639;28;20510;-76
2021/10/30 09:51:51;;;;;;;36.17;25.52;;;;;;;;;;5093248;28;20103;-76
2021/10/30 09:54:36;;;;;;;33.40;22.67;;;;;;;;;;5090840;28;20032;-75
2021/10/30 09:57:06;;;;;;;37.22;24.70;;;;;;;;;;5093431;28;20389;-74
2021/10/30 09:59:33;;;;;;;36.05;23.75;;;;;;;;;;5093523;28;20043;-74
2021/10/30 10:01:59;;;;;;;34.15;23.92;;;;;;;;;;5093739;28;20094;-75
2021/10/30 10:04:26;;;;;;;32.47;23.17;;;;;;;;;;5093717;28;20028;-74
2021/10/30 10:06:54;;;;;;;37.50;24.83;;;;;;;;;;5093320;28;20370;-73
2021/10/30 10:09:19;;;;;;;37.47;24.52;;;;;;;;;;5092620;28;20473;-74
2021/10/30 10:11:49;;;;;;;40.15;25.67;;;;;;;;;;5093282;28;20107;-75
2021/10/30 10:14:19;;;;;;;37.25;24.10;;;;;;;;;;5091884;28;20036;-73
2021/10/30 10:16:45;;;;;;;34.13;23.80;;;;;;;;;;5092976;28;20039;-74
2021/10/30 10:19:11;;;;;;;34.28;24.25;;;;;;;;;;5093453;28;20039;-76
2021/10/30 10:21:38;;;;;;;38.83;27.50;;;;;;;;;;5093044;28;20084;-75
2021/10/30 10:24:13;;;;;;;62.00;35.50;;;;;;;;;;5092924;28;20032;-75
2021/10/30 10:26:45;;;;;;;46.05;27.70;;;;;;;;;;5092290;28;20050;-75
2021/10/30 10:29:11;;;;;;;39.75;27.63;;;;;;;;;;5093331;28;20032;-75
2021/10/30 10:31:47;;;;;;;35.35;25.63;;;;;;;;;;5093320;28;20393;-75
2021/10/30 10:34:15;;;;;;;44.20;28.50;;;;;;;;;;5092811;28;20139;-75
2021/10/30 10:36:42;;;;;;;44.92;26.95;;;;;;;;;;5093663;28;20127;-76
2021/10/30 10:39:12;;;;;;;39.28;27.58;;;;;;;;;;5093579;28;20035;-79
2021/10/30 10:41:37;;;;;;;36.90;24.52;;;;;;;;;;5097679;28;20079;-76
2021/10/30 10:44:10;;;;;;;36.47;25.00;;;;;;;;;;5101545;28;20028;-78
2021/10/30 10:46:48;;;;;;;37.75;26.10;;;;;;;;;;5102938;28;20036;-78
2021/10/30 10:49:39;;;;;;;48.75;29.10;;;;;;;;;;5101712;28;20027;-78
2021/10/30 10:55:02;;;;;;;36.05;26.30;;;;;;;;;;5097426;28;20036;-77
2021/10/30 10:57:35;;;;;;;33.83;23.40;;;;;;;;;;5097851;28;20032;-76
2021/10/30 11:00:15;;;;;;;37.70;23.95;;;;;;;;;;5096914;28;20028;-75
2021/10/30 11:02:49;;;;;;;34.30;23.27;;;;;;;;;;5097051;28;20032;-76
2021/10/30 11:05:18;;;;;;;35.08;24.50;;;;;;;;;;5096749;28;20361;-76
2021/10/30 11:07:58;;;;;;;31.55;22.77;;;;;;;;;;5096733;28;20020;-75
2021/10/30 11:10:25;;;;;;;42.33;28.33;;;;;;;;;;5095877;28;20032;-76
2021/10/30 11:13:17;;;;;;;38.35;26.63;;;;;;;;;;5096350;28;20366;-75
2021/10/30 11:15:56;;;;;;;40.95;27.90;;;;;;;;;;5096902;28;20131;-76
2021/10/30 11:18:21;;;;;;;38.92;27.13;;;;;;;;;;5096400;28;20115;-75
2021/10/30 11:21:05;;;;;;;39.33;26.92;;;;;;;;;;5096869;28;20164;-76
2021/10/30 11:23:32;;;;;;;39.38;26.08;;;;;;;;;;5096467;28;20078;-75
2021/10/30 11:26:07;;;;;;;35.97;24.92;;;;;;;;;;5096893;28;20036;-73
2021/10/30 11:28:37;;;;;;;33.67;23.90;;;;;;;;;;5095624;28;20043;-75
2021/10/30 11:31:17;;;;;;;45.42;29.67;;;;;;;;;;5096228;28;20359;-75
2021/10/30 11:33:44;;;;;;;60.42;38.60;;;;;;;;;;5096181;28;20071;-74
2021/10/30 11:36:14;;;;;;;51.65;33.63;;;;;;;;;;5096402;28;20097;-74
2021/10/30 11:38:52;;;;;;;38.80;27.98;;;;;;;;;;5095819;28;20035;-74
2021/10/30 11:41:20;;;;;;;42.38;26.20;;;;;;;;;;5094390;28;20056;-75
2021/10/30 11:43:48;;;;;;;33.40;23.15;;;;;;;;;;5095425;28;20020;-74
2021/10/30 11:46:17;;;;;;;42.15;27.83;;;;;;;;;;5095924;28;20088;-74
2021/10/30 11:48:45;;;;;;;39.38;26.80;;;;;;;;;;5096339;28;20031;-74
2021/10/30 11:51:12;;;;;;;38.33;25.98;;;;;;;;;;5095249;28;20046;-74
2021/10/30 11:53:39;;;;;;;36.17;25.00;;;;;;;;;;5094034;28;20040;-74
2021/10/30 11:56:12;;;;;;;38.72;24.00;;;;;;;;;;5093293;28;20038;-74
2021/10/30 11:58:46;;;;;;;34.28;24.23;;;;;;;;;;5095241;28;20039;-74
2021/10/30 12:01:26;;;;;;;34.92;24.35;;;;;;;;;;5094377;28;20036;-74
2021/10/30 12:04:06;;;;;;;35.70;23.92;;;;;;;;;;5095859;28;20047;-74
2021/10/30 12:06:39;;;;;;;37.75;26.98;;;;;;;;;;5095564;28;20470;-74
2021/10/30 12:09:27;;;;;;;40.03;25.45;;;;;;;;;;5095456;28;20032;-75
2021/10/30 12:11:56;;;;;;;33.88;24.52;;;;;;;;;;5091409;28;20501;-76
2021/10/30 12:14:33;;;;;;;33.75;25.27;;;;;;;;;;5095424;28;20085;-75
2021/10/30 12:17:04;;;;;;;36.17;26.17;;;;;;;;;;5095480;28;20541;-74
2021/10/30 12:19:35;;;;;;;43.75;25.58;;;;;;;;;;5095935;28;20473;-74
2021/10/30 12:22:07;;;;;;;92.20;58.15;;;;;;;;;;5095688;28;20462;-74
2021/10/30 12:24:33;;;;;;;49.67;34.85;;;;;;;;;;5095365;28;20056;-74
2021/10/30 12:27:03;;;;;;;63.67;43.30;;;;;;;;;;5095634;28;20098;-75
2021/10/30 12:29:30;;;;;;;40.80;27.38;;;;;;;;;;5095333;28;20153;-75
2021/10/30 12:32:09;;;;;;;36.47;25.58;;;;;;;;;;5095494;28;20382;-76
2021/10/30 12:34:36;;;;;;;38.95;27.25;;;;;;;;;;5095106;28;20036;-76
2021/10/30 12:37:13;;;;;;;36.53;24.85;;;;;;;;;;5095432;28;20051;-76
2021/10/30 12:39:40;;;;;;;32.05;24.30;;;;;;;;;;5095122;28;20039;-76
2021/10/30 12:42:14;;;;;;;33.10;24.40;;;;;;;;;;5094826;28;20040;-75
2021/10/30 12:44:40;;;;;;;37.35;25.10;;;;;;;;;;5094132;28;20034;-77
2021/10/30 12:47:14;;;;;;;37.75;23.60;;;;;;;;;;5093789;28;20110;-76
2021/10/30 12:49:43;;;;;;;29.23;21.33;;;;;;;;;;5094823;28;20579;-76
2021/10/30 12:52:14;;;;;;;34.75;23.08;;;;;;;;;;5095144;28;20044;-76
2021/10/30 12:54:56;;;;;;;29.35;21.50;;;;;;;;;;5094414;28;20058;-76
2021/10/30 12:57:23;;;;;;;35.97;23.63;;;;;;;;;;5094889;28;20036;-77
2021/10/30 13:00:03;;;;;;;35.17;24.35;;;;;;;;;;5093360;28;20024;-76
2021/10/30 13:02:29;;;;;;;28.73;21.27;;;;;;;;;;5092767;28;20114;-76
2021/10/30 13:04:55;;;;;;;31.50;21.17;;;;;;;;;;5094233;28;20123;-76
2021/10/30 13:07:20;;;;;;;28.00;20.90;;;;;;;;;;5094647;28;20040;-75
2021/10/30 13:09:56;;;;;;;29.35;22.00;;;;;;;;;;5093545;28;20042;-75
2021/10/30 13:12:22;;;;;;;30.33;21.30;;;;;;;;;;5094697;28;20044;-76
2021/10/30 13:14:47;;;;;;;31.00;21.95;;;;;;;;;;5096621;28;20385;-77
2021/10/30 13:17:13;;;;;;;30.33;23.35;;;;;;;;;;5095153;28;20072;-76
2021/10/30 13:19:38;;;;;;;31.55;22.70;;;;;;;;;;5094480;28;20042;-78
2021/10/30 13:22:03;;;;;;;31.88;21.25;;;;;;;;;;5093470;28;20466;-73
2021/10/30 13:24:29;;;;;;;29.45;20.88;;;;;;;;;;5094174;28;20040;-73
2021/10/30 13:26:54;;;;;;;31.75;21.83;;;;;;;;;;5092610;28;20047;-73
2021/10/30 13:29:20;;;;;;;34.15;21.35;;;;;;;;;;5094464;28;20035;-74
2021/10/30 13:31:46;;;;;;;30.75;22.13;;;;;;;;;;5094316;28;20505;-74
2021/10/30 13:34:12;;;;;;;27.77;20.33;;;;;;;;;;5094166;28;20047;-72
2021/10/30 13:36:37;;;;;;;29.90;21.73;;;;;;;;;;5094180;28;20369;-74
2021/10/30 13:39:04;;;;;;;28.02;19.83;;;;;;;;;;5093793;28;20032;-75
2021/10/30 13:41:29;;;;;;;31.55;22.38;;;;;;;;;;5091540;28;20051;-74
2021/10/30 13:43:56;;;;;;;36.10;23.52;;;;;;;;;;5093865;28;20028;-75
2021/10/30 13:46:22;;;;;;;40.03;25.73;;;;;;;;;;5092637;28;20051;-72
2021/10/30 13:48:49;;;;;;;32.25;21.45;;;;;;;;;;5093822;28;20061;-73
2021/10/30 13:51:15;;;;;;;38.35;26.92;;;;;;;;;;5093686;28;20046;-73
2021/10/30 13:53:40;;;;;;;36.83;26.20;;;;;;;;;;5093146;28;20490;-73
2021/10/30 13:56:05;;;;;;;31.15;23.73;;;;;;;;;;5093645;28;20362;-73
2021/10/30 13:58:31;;;;;;;33.05;23.33;;;;;;;;;;5093761;28;20043;-73
2021/10/30 14:00:59;;;;;;;29.63;20.65;;;;;;;;;;5093884;28;20046;-73
2021/10/30 14:03:25;;;;;;;30.92;20.52;;;;;;;;;;5075576;28;20036;-73
2021/10/30 14:05:51;;;;;;;28.33;21.15;;;;;;;;;;5093736;28;20036;-73
2021/10/30 14:08:16;;;;;;;29.88;20.80;;;;;;;;;;5092990;28;20064;-73
2021/10/30 14:10:42;;;;;;;36.08;26.02;;;;;;;;;;5093200;28;20051;-73
2021/10/30 14:13:07;;;;;;;34.03;22.13;;;;;;;;;;5092194;28;20071;-73
2021/10/30 14:15:34;;;;;;;32.60;22.20;;;;;;;;;;5093497;28;20397;-73
2021/10/30 14:18:00;;;;;;;30.77;22.98;;;;;;;;;;5093507;28;20173;-73
2021/10/30 14:20:25;;;;;;;31.90;22.50;;;;;;;;;;5093514;28;20042;-73
2021/10/30 14:22:51;;;;;;;31.58;20.17;;;;;;;;;;5093218;28;20036;-73
2021/10/30 14:25:16;;;;;;;30.88;21.20;;;;;;;;;;5093187;28;20105;-73
2021/10/30 14:27:41;;;;;;;25.55;19.05;;;;;;;;;;5093178;28;20114;-73
2021/10/30 14:30:07;;;;;;;29.63;20.10;;;;;;;;;;5093535;28;20036;-73